LGR888 SAWH-SAWE
Flight info
| Callsign | LGR888 |
|---|---|
| Flight time | 1h 5m |
| Altitude | 2500 |
| Route | MIBOK DCT WH214 DCT EDPAN DCT DABLI DCT LOBID |
| Aircraft | R66/L-SFG/C |
Departure
| Time | 2026-04-11 13:25 |
|---|---|
| Airport | Ushuaia - Malvinas Argentinas International Airport (SAWH) |
Arrival
| Time | 2026-04-11 14:31 |
|---|---|
| Airport | Hermes Quijada International Airport (SAWE) |
| Time | Latitude | Longitude | Altitude | Speed | Heading |
|---|---|---|---|---|---|
| 2026-04-11 13:16 | -54.84050 | -68.31029 | 79 ft | 0 kts | 262° |
| 2026-04-11 13:21 | -54.84050 | -68.31036 | 85 ft | 2 kts | 262° |
| 2026-04-11 13:21 | -54.84054 | -68.31068 | 88 ft | 3 kts | 278° |
| 2026-04-11 13:21 | -54.84061 | -68.31130 | 89 ft | 7 kts | 278° |
| 2026-04-11 13:22 | -54.84075 | -68.31209 | 94 ft | 10 kts | 258° |
| 2026-04-11 13:22 | -54.84098 | -68.31294 | 94 ft | 4 kts | 220° |
| 2026-04-11 13:22 | -54.84125 | -68.31327 | 90 ft | 4 kts | 201° |
| 2026-04-11 13:22 | -54.84181 | -68.31328 | 89 ft | 8 kts | 187° |
| 2026-04-11 13:23 | -54.84251 | -68.31329 | 90 ft | 15 kts | 190° |
| 2026-04-11 13:23 | -54.84322 | -68.31316 | 98 ft | 4 kts | 170° |
| 2026-04-11 13:23 | -54.84356 | -68.31306 | 91 ft | 10 kts | 145° |
| 2026-04-11 13:23 | -54.84396 | -68.31026 | 132 ft | 52 kts | 93° |
| 2026-04-11 13:24 | -54.84376 | -68.30207 | 184 ft | 83 kts | 101° |
| 2026-04-11 13:24 | -54.84449 | -68.29154 | 373 ft | 92 kts | 107° |
| 2026-04-11 13:24 | -54.84661 | -68.28057 | 551 ft | 94 kts | 116° |
| 2026-04-11 13:24 | -54.85001 | -68.26930 | 419 ft | 126 kts | 122° |
| 2026-04-11 13:25 | -54.85474 | -68.25549 | 194 ft | 137 kts | 121° |
| 2026-04-11 13:25 | -54.85633 | -68.23985 | 80 ft | 135 kts | 86° |
| 2026-04-11 13:25 | -54.85514 | -68.22568 | 417 ft | 107 kts | 75° |
| 2026-04-11 13:25 | -54.85133 | -68.21594 | 736 ft | 95 kts | 48° |
| 2026-04-11 13:26 | -54.84568 | -68.21111 | 1041 ft | 90 kts | 12° |
| 2026-04-11 13:26 | -54.84008 | -68.21320 | 1405 ft | 82 kts | 332° |
| 2026-04-11 13:26 | -54.83689 | -68.22095 | 1762 ft | 81 kts | 293° |
| 2026-04-11 13:26 | -54.83746 | -68.23045 | 2109 ft | 84 kts | 255° |
| 2026-04-11 13:27 | -54.84175 | -68.23834 | 2278 ft | 105 kts | 218° |
| 2026-04-11 13:27 | -54.84945 | -68.24184 | 2315 ft | 121 kts | 181° |
| 2026-04-11 13:27 | -54.85769 | -68.23772 | 2334 ft | 128 kts | 147° |
| 2026-04-11 13:27 | -54.86362 | -68.22684 | 2343 ft | 124 kts | 114° |
| 2026-04-11 13:28 | -54.86531 | -68.21273 | 2348 ft | 119 kts | 79° |
| 2026-04-11 13:28 | -54.86249 | -68.19998 | 2351 ft | 113 kts | 47° |
| 2026-04-11 13:28 | -54.85660 | -68.19099 | 2331 ft | 115 kts | 40° |
| 2026-04-11 13:28 | -54.85178 | -68.18014 | 2350 ft | 114 kts | 45° |
| 2026-04-11 13:29 | -54.84697 | -68.16893 | 2347 ft | 115 kts | 46° |
| 2026-04-11 13:29 | -54.84219 | -68.15783 | 2346 ft | 115 kts | 46° |
| 2026-04-11 13:29 | -54.83743 | -68.14681 | 2346 ft | 115 kts | 46° |
| 2026-04-11 13:29 | -54.83257 | -68.13561 | 2347 ft | 116 kts | 45° |
| 2026-04-11 13:30 | -54.82769 | -68.12462 | 2334 ft | 118 kts | 49° |
| 2026-04-11 13:30 | -54.82425 | -68.11163 | 2329 ft | 117 kts | 57° |
| 2026-04-11 13:30 | -54.82093 | -68.09884 | 2343 ft | 117 kts | 57° |
| 2026-04-11 13:30 | -54.81850 | -68.08508 | 2329 ft | 122 kts | 75° |
| 2026-04-11 13:31 | -54.82008 | -68.07031 | 2336 ft | 129 kts | 106° |
| 2026-04-11 13:31 | -54.82408 | -68.05654 | 2341 ft | 129 kts | 111° |
| 2026-04-11 13:31 | -54.82818 | -68.04278 | 2366 ft | 127 kts | 112° |
| 2026-04-11 13:31 | -54.83216 | -68.02910 | 2406 ft | 125 kts | 110° |
| 2026-04-11 13:32 | -54.83611 | -68.01598 | 2485 ft | 121 kts | 111° |
| 2026-04-11 13:32 | -54.83981 | -68.00294 | 2564 ft | 119 kts | 110° |
| 2026-04-11 13:32 | -54.84356 | -67.99023 | 2655 ft | 119 kts | 111° |
| 2026-04-11 13:32 | -54.84710 | -67.97739 | 2755 ft | 117 kts | 105° |
| 2026-04-11 13:33 | -54.84988 | -67.96412 | 2854 ft | 117 kts | 102° |
| 2026-04-11 13:33 | -54.85250 | -67.95082 | 2951 ft | 118 kts | 102° |
| 2026-04-11 13:33 | -54.85506 | -67.93709 | 3053 ft | 118 kts | 97° |
| 2026-04-11 13:33 | -54.85665 | -67.92323 | 3156 ft | 117 kts | 93° |
| 2026-04-11 13:34 | -54.85828 | -67.90967 | 3352 ft | 115 kts | 93° |
| 2026-04-11 13:34 | -54.85942 | -67.89611 | 3610 ft | 111 kts | 87° |
| 2026-04-11 13:34 | -54.85940 | -67.88292 | 3860 ft | 111 kts | 81° |
| 2026-04-11 13:34 | -54.85901 | -67.86959 | 4114 ft | 111 kts | 79° |
| 2026-04-11 13:35 | -54.85855 | -67.85619 | 4364 ft | 112 kts | 79° |
| 2026-04-11 13:35 | -54.85778 | -67.84280 | 4606 ft | 113 kts | 75° |
| 2026-04-11 13:35 | -54.85691 | -67.82929 | 4840 ft | 114 kts | 74° |
| 2026-04-11 13:35 | -54.85572 | -67.81566 | 5071 ft | 114 kts | 71° |
| 2026-04-11 13:36 | -54.85448 | -67.80198 | 5296 ft | 116 kts | 72° |
| 2026-04-11 13:36 | -54.85344 | -67.78803 | 5516 ft | 117 kts | 73° |
| 2026-04-11 13:36 | -54.85231 | -67.77415 | 5729 ft | 117 kts | 70° |
| 2026-04-11 13:36 | -54.85084 | -67.76045 | 5942 ft | 114 kts | 65° |
| 2026-04-11 13:37 | -54.84876 | -67.74719 | 6208 ft | 112 kts | 62° |
| 2026-04-11 13:37 | -54.84614 | -67.73421 | 6347 ft | 122 kts | 57° |
| 2026-04-11 13:37 | -54.84302 | -67.71980 | 6352 ft | 133 kts | 55° |
| 2026-04-11 13:37 | -54.83935 | -67.70499 | 6334 ft | 130 kts | 51° |
| 2026-04-11 13:38 | -54.83554 | -67.69116 | 6336 ft | 127 kts | 49° |
| 2026-04-11 13:38 | -54.83144 | -67.67758 | 6335 ft | 127 kts | 47° |
| 2026-04-11 13:38 | -54.82706 | -67.66434 | 6336 ft | 126 kts | 44° |
| 2026-04-11 13:38 | -54.82247 | -67.65166 | 6336 ft | 124 kts | 41° |
| 2026-04-11 13:39 | -54.81742 | -67.63940 | 6328 ft | 123 kts | 37° |
| 2026-04-11 13:39 | -54.81211 | -67.62809 | 6340 ft | 116 kts | 25° |
| 2026-04-11 13:39 | -54.80538 | -67.62214 | 6337 ft | 104 kts | 2° |
| 2026-04-11 13:39 | -54.79858 | -67.62148 | 6341 ft | 94 kts | 340° |
| 2026-04-11 13:40 | -54.79282 | -67.62582 | 6342 ft | 88 kts | 319° |
| 2026-04-11 13:40 | -54.78914 | -67.63402 | 6343 ft | 87 kts | 297° |
| 2026-04-11 13:40 | -54.78821 | -67.64446 | 6347 ft | 92 kts | 276° |
| 2026-04-11 13:40 | -54.79028 | -67.65553 | 6346 ft | 102 kts | 253° |
| 2026-04-11 13:41 | -54.79533 | -67.66476 | 6337 ft | 109 kts | 228° |
| 2026-04-11 13:41 | -54.80258 | -67.66911 | 6340 ft | 112 kts | 197° |
| 2026-04-11 13:41 | -54.81035 | -67.66734 | 6343 ft | 115 kts | 167° |
| 2026-04-11 13:41 | -54.81719 | -67.65983 | 6339 ft | 117 kts | 136° |
| 2026-04-11 13:42 | -54.82155 | -67.64837 | 6330 ft | 112 kts | 101° |
| 2026-04-11 13:42 | -54.82261 | -67.63588 | 6330 ft | 97 kts | 66° |
| 2026-04-11 13:42 | -54.82066 | -67.62600 | 6337 ft | 79 kts | 31° |
| 2026-04-11 13:42 | -54.81704 | -67.62102 | 6337 ft | 56 kts | 350° |
| 2026-04-11 13:43 | -54.81393 | -67.62174 | 6339 ft | 39 kts | 309° |
| 2026-04-11 13:43 | -54.81187 | -67.62480 | 6326 ft | 37 kts | 310° |
| 2026-04-11 13:43 | -54.80974 | -67.62752 | 6322 ft | 40 kts | 316° |
| 2026-04-11 13:43 | -54.80742 | -67.62995 | 6334 ft | 37 kts | 311° |
| 2026-04-11 13:44 | -54.80487 | -67.63189 | 6326 ft | 41 kts | 323° |
| 2026-04-11 13:44 | -54.80220 | -67.63345 | 6324 ft | 39 kts | 317° |
| 2026-04-11 13:44 | -54.79993 | -67.63588 | 6331 ft | 37 kts | 309° |
| 2026-04-11 13:44 | -54.79814 | -67.63902 | 6329 ft | 38 kts | 311° |
| 2026-04-11 13:45 | -54.79525 | -67.63985 | 6324 ft | 45 kts | 336° |
| 2026-04-11 13:45 | -54.79214 | -67.63940 | 6335 ft | 44 kts | 337° |
| 2026-04-11 13:45 | -54.78916 | -67.63945 | 6339 ft | 41 kts | 329° |
| 2026-04-11 13:45 | -54.78625 | -67.63991 | 6339 ft | 41 kts | 329° |
| 2026-04-11 13:46 | -54.78336 | -67.64040 | 6337 ft | 42 kts | 330° |
| 2026-04-11 13:46 | -54.78043 | -67.64087 | 6339 ft | 41 kts | 329° |
| 2026-04-11 13:46 | -54.77756 | -67.64125 | 6342 ft | 42 kts | 330° |
| 2026-04-11 13:46 | -54.77468 | -67.64168 | 6341 ft | 42 kts | 329° |
| 2026-04-11 13:47 | -54.77153 | -67.64216 | 6313 ft | 46 kts | 329° |
| 2026-04-11 13:47 | -54.76824 | -67.64269 | 6285 ft | 48 kts | 328° |
| 2026-04-11 13:47 | -54.76487 | -67.64336 | 6262 ft | 49 kts | 328° |
| 2026-04-11 13:47 | -54.76144 | -67.64415 | 6235 ft | 50 kts | 328° |
| 2026-04-11 13:48 | -54.75796 | -67.64501 | 6204 ft | 52 kts | 330° |
| 2026-04-11 13:48 | -54.75419 | -67.64499 | 6169 ft | 55 kts | 337° |
| 2026-04-11 13:48 | -54.75037 | -67.64487 | 6145 ft | 54 kts | 337° |
| 2026-04-11 13:48 | -54.74670 | -67.64545 | 6126 ft | 50 kts | 327° |
| 2026-04-11 13:49 | -54.74347 | -67.64718 | 6105 ft | 47 kts | 320° |
| 2026-04-11 13:49 | -54.74046 | -67.64956 | 6061 ft | 52 kts | 328° |
| 2026-04-11 13:49 | -54.73651 | -67.64857 | 6020 ft | 63 kts | 352° |
| 2026-04-11 13:49 | -54.73269 | -67.64815 | 6001 ft | 52 kts | 331° |
| 2026-04-11 13:50 | -54.72918 | -67.64928 | 5969 ft | 50 kts | 325° |
| 2026-04-11 13:50 | -54.72544 | -67.64986 | 5940 ft | 57 kts | 340° |
| 2026-04-11 13:50 | -54.72155 | -67.64964 | 5923 ft | 55 kts | 336° |
| 2026-04-11 13:50 | -54.71771 | -67.64909 | 5932 ft | 57 kts | 342° |
| 2026-04-11 13:51 | -54.71386 | -67.64871 | 6133 ft | 47 kts | 346° |
| 2026-04-11 13:51 | -54.70964 | -67.64880 | 6114 ft | 72 kts | 340° |
| 2026-04-11 13:51 | -54.70419 | -67.64949 | 6103 ft | 82 kts | 341° |
| 2026-04-11 13:51 | -54.69828 | -67.64988 | 6106 ft | 87 kts | 343° |
| 2026-04-11 13:52 | -54.69219 | -67.65037 | 6106 ft | 88 kts | 342° |
| 2026-04-11 13:52 | -54.68601 | -67.65037 | 6109 ft | 88 kts | 344° |
| 2026-04-11 13:52 | -54.67987 | -67.65063 | 6112 ft | 89 kts | 342° |
| 2026-04-11 13:52 | -54.67361 | -67.65086 | 6110 ft | 90 kts | 343° |
| 2026-04-11 13:53 | -54.66740 | -67.65094 | 6109 ft | 90 kts | 344° |
| 2026-04-11 13:53 | -54.66119 | -67.65077 | 6110 ft | 89 kts | 343° |
| 2026-04-11 13:53 | -54.65503 | -67.65120 | 6114 ft | 87 kts | 340° |
| 2026-04-11 13:53 | -54.64906 | -67.65227 | 6122 ft | 86 kts | 338° |
| 2026-04-11 13:54 | -54.64310 | -67.65398 | 6126 ft | 85 kts | 335° |
| 2026-04-11 13:54 | -54.63742 | -67.65629 | 6134 ft | 84 kts | 332° |
| 2026-04-11 13:54 | -54.63187 | -67.65922 | 6139 ft | 83 kts | 329° |
| 2026-04-11 13:54 | -54.62647 | -67.66275 | 6145 ft | 82 kts | 326° |
| 2026-04-11 13:55 | -54.62131 | -67.66682 | 6142 ft | 82 kts | 324° |
| 2026-04-11 13:55 | -54.61628 | -67.67160 | 6120 ft | 83 kts | 321° |
| 2026-04-11 13:55 | -54.61150 | -67.67703 | 6096 ft | 82 kts | 317° |
| 2026-04-11 13:55 | -54.60691 | -67.68314 | 6072 ft | 82 kts | 313° |
| 2026-04-11 13:56 | -54.60270 | -67.68972 | 6049 ft | 81 kts | 310° |
| 2026-04-11 13:56 | -54.59886 | -67.69677 | 6030 ft | 81 kts | 306° |
| 2026-04-11 13:56 | -54.59391 | -67.70207 | 5964 ft | 93 kts | 335° |
| 2026-04-11 13:56 | -54.58733 | -67.70200 | 5930 ft | 97 kts | 349° |
| 2026-04-11 13:57 | -54.58054 | -67.70111 | 5908 ft | 97 kts | 348° |
| 2026-04-11 13:57 | -54.57383 | -67.69968 | 5880 ft | 99 kts | 351° |
| 2026-04-11 13:57 | -54.56700 | -67.69756 | 5854 ft | 100 kts | 356° |
| 2026-04-11 13:57 | -54.56025 | -67.69438 | 5828 ft | 101 kts | 358° |
| 2026-04-11 13:58 | -54.55354 | -67.69096 | 5803 ft | 102 kts | 357° |
| 2026-04-11 13:58 | -54.54673 | -67.68758 | 5777 ft | 101 kts | 359° |
| 2026-04-11 13:58 | -54.53994 | -67.68433 | 5751 ft | 101 kts | 358° |
| 2026-04-11 13:58 | -54.53311 | -67.68103 | 5716 ft | 101 kts | 358° |
| 2026-04-11 13:59 | -54.52629 | -67.67781 | 5694 ft | 102 kts | 358° |
| 2026-04-11 13:59 | -54.51946 | -67.67440 | 5667 ft | 101 kts | 359° |
| 2026-04-11 13:59 | -54.51271 | -67.67130 | 5631 ft | 101 kts | 355° |
| 2026-04-11 13:59 | -54.50579 | -67.66928 | 5594 ft | 100 kts | 352° |
| 2026-04-11 14:00 | -54.49903 | -67.66756 | 5566 ft | 99 kts | 350° |
| 2026-04-11 14:00 | -54.49207 | -67.66601 | 5498 ft | 102 kts | 352° |
| 2026-04-11 14:00 | -54.47789 | -67.66231 | 5370 ft | 103 kts | 353° |
| 2026-04-11 14:01 | -54.47085 | -67.66006 | 5301 ft | 105 kts | 357° |
| 2026-04-11 14:01 | -54.46363 | -67.65736 | 5226 ft | 106 kts | 357° |
| 2026-04-11 14:01 | -54.45643 | -67.65469 | 5168 ft | 105 kts | 356° |
| 2026-04-11 14:01 | -54.44930 | -67.65192 | 5101 ft | 106 kts | 357° |
| 2026-04-11 14:02 | -54.44206 | -67.64912 | 5017 ft | 107 kts | 357° |
| 2026-04-11 14:02 | -54.43478 | -67.64638 | 4925 ft | 107 kts | 357° |
| 2026-04-11 14:02 | -54.42755 | -67.64349 | 4833 ft | 107 kts | 356° |
| 2026-04-11 14:02 | -54.42044 | -67.64048 | 4759 ft | 105 kts | 357° |
| 2026-04-11 14:03 | -54.41328 | -67.63747 | 4658 ft | 106 kts | 358° |
| 2026-04-11 14:03 | -54.40608 | -67.63481 | 4576 ft | 105 kts | 357° |
| 2026-04-11 14:03 | -54.39891 | -67.63199 | 4487 ft | 106 kts | 356° |
| 2026-04-11 14:03 | -54.39178 | -67.62909 | 4421 ft | 104 kts | 357° |
| 2026-04-11 14:04 | -54.38480 | -67.62649 | 4377 ft | 101 kts | 356° |
| 2026-04-11 14:04 | -54.37799 | -67.62389 | 4371 ft | 99 kts | 357° |
| 2026-04-11 14:04 | -54.37109 | -67.62125 | 4309 ft | 102 kts | 356° |
| 2026-04-11 14:04 | -54.36431 | -67.61860 | 4248 ft | 100 kts | 356° |
| 2026-04-11 14:05 | -54.35744 | -67.61575 | 4195 ft | 100 kts | 357° |
| 2026-04-11 14:05 | -54.35073 | -67.61304 | 4142 ft | 99 kts | 356° |
| 2026-04-11 14:05 | -54.34395 | -67.61034 | 4088 ft | 100 kts | 356° |
| 2026-04-11 14:05 | -54.33712 | -67.60763 | 4035 ft | 100 kts | 356° |
| 2026-04-11 14:06 | -54.33033 | -67.60474 | 3978 ft | 100 kts | 357° |
| 2026-04-11 14:06 | -54.32361 | -67.60189 | 3924 ft | 101 kts | 356° |
| 2026-04-11 14:06 | -54.31678 | -67.59906 | 3867 ft | 100 kts | 356° |
| 2026-04-11 14:06 | -54.30994 | -67.59637 | 3820 ft | 100 kts | 356° |
| 2026-04-11 14:07 | -54.30313 | -67.59372 | 3772 ft | 100 kts | 357° |
| 2026-04-11 14:07 | -54.29636 | -67.59101 | 3720 ft | 101 kts | 356° |
| 2026-04-11 14:07 | -54.28957 | -67.58862 | 3664 ft | 100 kts | 355° |
| 2026-04-11 14:07 | -54.28272 | -67.58656 | 3603 ft | 99 kts | 353° |
| 2026-04-11 14:08 | -54.27577 | -67.58494 | 3540 ft | 100 kts | 352° |
| 2026-04-11 14:08 | -54.26888 | -67.58328 | 3481 ft | 100 kts | 352° |
| 2026-04-11 14:08 | -54.26200 | -67.58162 | 3420 ft | 100 kts | 353° |
| 2026-04-11 14:08 | -54.25523 | -67.58010 | 3376 ft | 98 kts | 353° |
| 2026-04-11 14:09 | -54.24859 | -67.57852 | 3378 ft | 95 kts | 353° |
| 2026-04-11 14:09 | -54.24204 | -67.57692 | 3430 ft | 90 kts | 352° |
| 2026-04-11 14:09 | -54.23780 | -67.57476 | 3908 ft | 52 kts | 355° |
| 2026-04-11 14:09 | -54.23336 | -67.57292 | 3924 ft | 76 kts | 352° |
| 2026-04-11 14:10 | -54.22781 | -67.57079 | 3927 ft | 87 kts | 353° |
| 2026-04-11 14:10 | -54.22152 | -67.56888 | 3870 ft | 94 kts | 352° |
| 2026-04-11 14:10 | -54.21491 | -67.56676 | 3766 ft | 98 kts | 352° |
| 2026-04-11 14:10 | -54.20816 | -67.56469 | 3651 ft | 100 kts | 353° |
| 2026-04-11 14:11 | -54.20122 | -67.56267 | 3526 ft | 101 kts | 353° |
| 2026-04-11 14:11 | -54.19428 | -67.56081 | 3406 ft | 101 kts | 352° |
| 2026-04-11 14:11 | -54.18736 | -67.55891 | 3290 ft | 102 kts | 352° |
| 2026-04-11 14:11 | -54.18037 | -67.55698 | 3185 ft | 101 kts | 352° |
| 2026-04-11 14:12 | -54.17335 | -67.55525 | 3066 ft | 102 kts | 352° |
| 2026-04-11 14:12 | -54.16640 | -67.55339 | 2958 ft | 100 kts | 353° |
| 2026-04-11 14:12 | -54.15976 | -67.55175 | 2938 ft | 93 kts | 351° |
| 2026-04-11 14:12 | -54.15357 | -67.55002 | 2933 ft | 88 kts | 353° |
| 2026-04-11 14:13 | -54.14761 | -67.54836 | 2937 ft | 86 kts | 352° |
| 2026-04-11 14:13 | -54.14165 | -67.54673 | 2933 ft | 87 kts | 352° |
| 2026-04-11 14:13 | -54.13569 | -67.54504 | 2941 ft | 87 kts | 353° |
| 2026-04-11 14:13 | -54.12970 | -67.54332 | 2935 ft | 87 kts | 352° |
| 2026-04-11 14:14 | -54.12366 | -67.54160 | 2934 ft | 87 kts | 352° |
| 2026-04-11 14:14 | -54.11746 | -67.53988 | 2890 ft | 91 kts | 352° |
| 2026-04-11 14:14 | -54.11121 | -67.53800 | 2845 ft | 92 kts | 352° |
| 2026-04-11 14:14 | -54.10492 | -67.53609 | 2811 ft | 91 kts | 353° |
| 2026-04-11 14:15 | -54.09873 | -67.53391 | 2772 ft | 90 kts | 352° |
| 2026-04-11 14:15 | -54.09253 | -67.53170 | 2794 ft | 96 kts | 354° |
| 2026-04-11 14:15 | -54.08550 | -67.52985 | 2770 ft | 106 kts | 352° |
| 2026-04-11 14:15 | -54.07817 | -67.52812 | 2749 ft | 109 kts | 354° |
| 2026-04-11 14:16 | -54.07071 | -67.52637 | 2720 ft | 108 kts | 353° |
| 2026-04-11 14:16 | -54.06334 | -67.52440 | 2694 ft | 105 kts | 352° |
| 2026-04-11 14:16 | -54.05635 | -67.52248 | 2662 ft | 101 kts | 351° |
| 2026-04-11 14:16 | -54.04942 | -67.52026 | 2654 ft | 98 kts | 353° |
| 2026-04-11 14:17 | -54.04276 | -67.51823 | 2642 ft | 98 kts | 353° |
| 2026-04-11 14:17 | -54.03607 | -67.51614 | 2619 ft | 97 kts | 353° |
| 2026-04-11 14:17 | -54.02947 | -67.51430 | 2600 ft | 97 kts | 351° |
| 2026-04-11 14:17 | -54.02269 | -67.51248 | 2568 ft | 102 kts | 351° |
| 2026-04-11 14:18 | -54.01533 | -67.51078 | 2523 ft | 108 kts | 352° |
| 2026-04-11 14:18 | -54.00780 | -67.50901 | 2470 ft | 111 kts | 353° |
| 2026-04-11 14:18 | -54.00010 | -67.50707 | 2465 ft | 111 kts | 353° |
| 2026-04-11 14:18 | -53.99237 | -67.50499 | 2444 ft | 112 kts | 352° |
| 2026-04-11 14:19 | -53.98468 | -67.50304 | 2438 ft | 112 kts | 352° |
| 2026-04-11 14:19 | -53.97702 | -67.50114 | 2399 ft | 110 kts | 352° |
| 2026-04-11 14:19 | -53.96957 | -67.49918 | 2373 ft | 107 kts | 352° |
| 2026-04-11 14:19 | -53.96225 | -67.49737 | 2339 ft | 106 kts | 351° |
| 2026-04-11 14:20 | -53.95494 | -67.49569 | 2300 ft | 105 kts | 352° |
| 2026-04-11 14:20 | -53.94770 | -67.49403 | 2262 ft | 104 kts | 349° |
| 2026-04-11 14:20 | -53.94054 | -67.49339 | 2223 ft | 99 kts | 345° |
| 2026-04-11 14:20 | -53.93417 | -67.49345 | 2272 ft | 93 kts | 344° |
| 2026-04-11 14:21 | -53.92814 | -67.49557 | 2250 ft | 89 kts | 330° |
| 2026-04-11 14:21 | -53.92202 | -67.49785 | 2218 ft | 91 kts | 333° |
| 2026-04-11 14:21 | -53.91583 | -67.50020 | 2194 ft | 92 kts | 333° |
| 2026-04-11 14:21 | -53.90967 | -67.50243 | 2141 ft | 88 kts | 332° |
| 2026-04-11 14:22 | -53.90380 | -67.50440 | 2098 ft | 84 kts | 333° |
| 2026-04-11 14:22 | -53.89805 | -67.50616 | 2065 ft | 83 kts | 332° |
| 2026-04-11 14:22 | -53.89241 | -67.50778 | 2030 ft | 82 kts | 332° |
| 2026-04-11 14:22 | -53.88682 | -67.50935 | 1997 ft | 81 kts | 333° |
| 2026-04-11 14:23 | -53.88118 | -67.51111 | 1948 ft | 83 kts | 333° |
| 2026-04-11 14:23 | -53.87539 | -67.51286 | 1905 ft | 84 kts | 332° |
| 2026-04-11 14:23 | -53.86961 | -67.51459 | 1860 ft | 85 kts | 332° |
| 2026-04-11 14:23 | -53.86382 | -67.51630 | 1806 ft | 85 kts | 333° |
| 2026-04-11 14:24 | -53.85796 | -67.51799 | 1761 ft | 86 kts | 333° |
| 2026-04-11 14:24 | -53.85210 | -67.51972 | 1718 ft | 86 kts | 332° |
| 2026-04-11 14:24 | -53.84618 | -67.52139 | 1670 ft | 86 kts | 332° |
| 2026-04-11 14:24 | -53.84023 | -67.52309 | 1608 ft | 85 kts | 333° |
| 2026-04-11 14:25 | -53.83441 | -67.52480 | 1526 ft | 85 kts | 333° |
| 2026-04-11 14:25 | -53.82870 | -67.52648 | 1471 ft | 80 kts | 333° |
| 2026-04-11 14:25 | -53.82336 | -67.52800 | 1464 ft | 74 kts | 333° |
| 2026-04-11 14:25 | -53.81836 | -67.52917 | 1470 ft | 70 kts | 333° |
| 2026-04-11 14:26 | -53.81365 | -67.53031 | 1468 ft | 68 kts | 333° |
| 2026-04-11 14:26 | -53.80895 | -67.53142 | 1468 ft | 68 kts | 332° |
| 2026-04-11 14:26 | -53.80429 | -67.53254 | 1463 ft | 67 kts | 332° |
| 2026-04-11 14:26 | -53.79969 | -67.53365 | 1478 ft | 67 kts | 332° |
| 2026-04-11 14:27 | -53.79501 | -67.53473 | 1474 ft | 68 kts | 332° |
| 2026-04-11 14:27 | -53.79031 | -67.53573 | 1474 ft | 68 kts | 333° |
| 2026-04-11 14:27 | -53.78567 | -67.53667 | 1475 ft | 68 kts | 333° |
| 2026-04-11 14:27 | -53.78097 | -67.53754 | 1472 ft | 66 kts | 332° |
| 2026-04-11 14:28 | -53.77638 | -67.53819 | 1473 ft | 70 kts | 340° |
| 2026-04-11 14:28 | -53.77150 | -67.53786 | 1483 ft | 69 kts | 338° |
| 2026-04-11 14:28 | -53.76699 | -67.53912 | 1495 ft | 62 kts | 320° |
| 2026-04-11 14:28 | -53.76499 | -67.54390 | 1502 ft | 51 kts | 265° |
| 2026-04-11 14:29 | -53.76591 | -67.55006 | 1479 ft | 56 kts | 249° |
| 2026-04-11 14:29 | -53.76866 | -67.55499 | 1492 ft | 63 kts | 220° |
| 2026-04-11 14:29 | -53.77313 | -67.55751 | 1431 ft | 77 kts | 202° |
| 2026-04-11 14:29 | -53.77800 | -67.56226 | 1154 ft | 84 kts | 239° |
| 2026-04-11 14:30 | -53.77874 | -67.57220 | 761 ft | 97 kts | 280° |
| 2026-04-11 14:30 | -53.77717 | -67.58251 | 651 ft | 78 kts | 271° |
| 2026-04-11 14:30 | -53.77754 | -67.59087 | 621 ft | 66 kts | 268° |
| 2026-04-11 14:30 | -53.77846 | -67.59875 | 507 ft | 66 kts | 264° |
| 2026-04-11 14:31 | -53.77888 | -67.60611 | 452 ft | 57 kts | 271° |
| 2026-04-11 14:31 | -53.77821 | -67.61206 | 441 ft | 47 kts | 284° |
| 2026-04-11 14:31 | -53.77806 | -67.61780 | 395 ft | 54 kts | 269° |
| 2026-04-11 14:31 | -53.77804 | -67.62358 | 456 ft | 40 kts | 292° |
| 2026-04-11 14:32 | -53.77721 | -67.62695 | 537 ft | 26 kts | 284° |
| 2026-04-11 14:32 | -53.77724 | -67.63001 | 553 ft | 26 kts | 279° |
| 2026-04-11 14:32 | -53.77720 | -67.63284 | 536 ft | 31 kts | 281° |
| 2026-04-11 14:32 | -53.77729 | -67.63669 | 548 ft | 28 kts | 281° |
| 2026-04-11 14:33 | -53.77720 | -67.64006 | 533 ft | 30 kts | 277° |
| 2026-04-11 14:33 | -53.77734 | -67.64362 | 534 ft | 29 kts | 286° |
| 2026-04-11 14:33 | -53.77684 | -67.64819 | 452 ft | 49 kts | 282° |
| 2026-04-11 14:33 | -53.77617 | -67.65448 | 400 ft | 57 kts | 285° |
| 2026-04-11 14:34 | -53.77551 | -67.66118 | 397 ft | 56 kts | 275° |
| 2026-04-11 14:34 | -53.77553 | -67.66764 | 411 ft | 56 kts | 272° |
| 2026-04-11 14:34 | -53.77563 | -67.67419 | 391 ft | 57 kts | 270° |
| 2026-04-11 14:34 | -53.77600 | -67.68146 | 303 ft | 61 kts | 272° |
| 2026-04-11 14:35 | -53.77609 | -67.68790 | 338 ft | 53 kts | 271° |
| 2026-04-11 14:35 | -53.77643 | -67.69371 | 333 ft | 42 kts | 267° |
| 2026-04-11 14:35 | -53.77655 | -67.69768 | 309 ft | 30 kts | 280° |
| 2026-04-11 14:35 | -53.77653 | -67.70217 | 293 ft | 45 kts | 270° |
| 2026-04-11 14:36 | -53.77667 | -67.70764 | 330 ft | 47 kts | 269° |
| 2026-04-11 14:36 | -53.77669 | -67.71344 | 339 ft | 54 kts | 269° |
| 2026-04-11 14:36 | -53.77689 | -67.72012 | 313 ft | 55 kts | 268° |
| 2026-04-11 14:36 | -53.77703 | -67.72661 | 220 ft | 59 kts | 263° |
| 2026-04-11 14:37 | -53.77718 | -67.73310 | 137 ft | 48 kts | 265° |
| 2026-04-11 14:37 | -53.77734 | -67.73777 | 105 ft | 37 kts | 266° |
| 2026-04-11 14:37 | -53.77742 | -67.74151 | 88 ft | 23 kts | 269° |
| 2026-04-11 14:37 | -53.77754 | -67.74406 | 87 ft | 20 kts | 268° |
| 2026-04-11 14:38 | -53.77753 | -67.74616 | 85 ft | 21 kts | 269° |
| 2026-04-11 14:38 | -53.77760 | -67.74837 | 95 ft | 16 kts | 268° |
| 2026-04-11 14:38 | -53.77784 | -67.75024 | 80 ft | 15 kts | 264° |
| 2026-04-11 14:38 | -53.77809 | -67.75159 | 79 ft | 9 kts | 245° |
| 2026-04-11 14:39 | -53.77839 | -67.75267 | 76 ft | 8 kts | 247° |
| 2026-04-11 14:39 | -53.77882 | -67.75318 | 79 ft | 14 kts | 217° |
| 2026-04-11 14:39 | -53.78009 | -67.75328 | 96 ft | 13 kts | 187° |
| 2026-04-11 14:39 | -53.78092 | -67.75292 | 74 ft | 6 kts | 155° |
| 2026-04-11 14:40 | -53.78112 | -67.75285 | 84 ft | 7 kts | 200° |
| 2026-04-11 14:40 | -53.78112 | -67.75281 | 64 ft | 0 kts | 206° |
| 2026-04-11 14:42 | -53.78110 | -67.75279 | 72 ft | 2 kts | 202° |
| 2026-04-11 14:42 | -53.78120 | -67.75297 | 74 ft | 12 kts | 198° |
| 2026-04-11 14:43 | -53.78130 | -67.75312 | 64 ft | 0 kts | 181° |